createdAt,value
2022-08-19T00:01:51.680Z,15.1
2022-08-19T00:04:18.299Z,15.2
2022-08-19T00:06:44.928Z,14.7
2022-08-19T00:09:11.547Z,14.8
2022-08-19T00:11:38.167Z,15.2
2022-08-19T00:14:03.303Z,14.7
2022-08-19T00:16:29.923Z,14.9
2022-08-19T00:18:56.531Z,15.5
2022-08-19T00:21:23.183Z,14.6
2022-08-19T00:23:49.777Z,15.7
2022-08-19T00:26:16.407Z,14.7
2022-08-19T00:28:43.045Z,15
2022-08-19T00:31:09.655Z,14.7
2022-08-19T00:33:36.282Z,15.4
2022-08-19T00:36:02.900Z,14.6
2022-08-19T00:38:29.516Z,14.8
2022-08-19T00:40:56.151Z,15.2
2022-08-19T00:43:22.769Z,14.5
2022-08-19T00:45:47.907Z,15
2022-08-19T00:48:13.024Z,14.5
2022-08-19T00:50:39.658Z,15.9
2022-08-19T00:53:06.279Z,15.8
2022-08-19T00:55:32.894Z,16.3
2022-08-19T00:57:59.524Z,15.6
2022-08-19T01:00:26.132Z,16.4
2022-08-19T01:02:52.775Z,15.9
2022-08-19T01:07:46.041Z,16.2
2022-08-19T01:10:12.635Z,15.6
2022-08-19T01:12:39.278Z,15
2022-08-19T01:15:05.874Z,16.4
2022-08-19T01:17:32.507Z,16.7
2022-08-19T01:19:57.643Z,14.8
2022-08-19T01:22:24.259Z,16.5
2022-08-19T01:24:50.884Z,17.2
2022-08-19T01:29:44.135Z,16.7
2022-08-19T01:32:10.747Z,17.1
2022-08-19T01:37:02.509Z,16.8
2022-08-19T01:39:27.640Z,17.9
2022-08-19T01:41:52.765Z,17.8
2022-08-19T01:44:19.406Z,17.2
2022-08-19T01:46:46.006Z,16.4
2022-08-19T01:49:12.657Z,17.3
2022-08-19T01:51:39.247Z,17.3
2022-08-19T01:54:05.881Z,17.8
2022-08-19T01:56:32.497Z,16.4
2022-08-19T01:58:59.120Z,17.5
2022-08-19T02:01:25.739Z,16.7
2022-08-19T02:03:52.365Z,17
2022-08-19T02:06:17.504Z,16.9
2022-08-19T02:08:42.611Z,17.1
2022-08-19T02:11:09.249Z,18.2
2022-08-19T02:13:35.867Z,16.4
2022-08-19T02:16:02.497Z,17.5
2022-08-19T02:18:29.113Z,16.8
2022-08-19T02:20:55.739Z,17.8
2022-08-19T02:23:22.362Z,18.1
2022-08-19T02:25:48.991Z,17.3
2022-08-19T02:28:15.606Z,17.6
2022-08-19T02:30:42.213Z,17.4
2022-08-19T02:33:08.867Z,17.2
2022-08-19T02:35:33.980Z,17
2022-08-19T02:38:00.615Z,17.4
2022-08-19T02:42:52.348Z,17.8
2022-08-19T02:45:18.991Z,18
2022-08-19T02:47:45.606Z,18.2
2022-08-19T02:50:12.212Z,18.3
2022-08-19T02:52:38.833Z,17.5
2022-08-19T02:55:05.469Z,19
2022-08-19T02:57:32.082Z,21.1
2022-08-19T02:59:58.705Z,20.9
2022-08-19T03:02:25.340Z,20
2022-08-19T03:04:51.963Z,17.6
2022-08-19T03:07:18.586Z,17.9
2022-08-19T03:09:45.205Z,18.9
2022-08-19T03:12:10.318Z,18.9
2022-08-19T03:14:36.958Z,19.1
2022-08-19T03:17:03.570Z,18.1
2022-08-19T03:19:30.196Z,19.4
2022-08-19T03:21:56.820Z,20.2
2022-08-19T03:24:23.453Z,20.2
2022-08-19T03:26:50.059Z,19.6
2022-08-19T03:29:16.691Z,19.2
2022-08-19T03:31:43.311Z,21.2
2022-08-19T03:34:09.928Z,18.8
2022-08-19T03:36:36.564Z,19.8
2022-08-19T03:39:03.179Z,20.8
2022-08-19T03:41:29.794Z,19.8
2022-08-19T03:43:54.920Z,19.8
2022-08-19T03:46:21.544Z,19.2
2022-08-19T03:48:48.166Z,19.3
2022-08-19T03:51:14.792Z,19.7
2022-08-19T03:53:41.420Z,19.8
2022-08-19T03:56:08.038Z,19.5
2022-08-19T03:58:34.666Z,19.9
2022-08-19T04:01:01.294Z,18.7
2022-08-19T04:03:27.908Z,20.2
2022-08-19T04:05:54.525Z,18.4
2022-08-19T04:08:21.154Z,19.9
2022-08-19T04:10:47.763Z,20.8
2022-08-19T04:13:14.399Z,20.7
2022-08-19T04:15:39.514Z,20.8
2022-08-19T04:18:06.148Z,20.4
2022-08-19T04:22:59.395Z,20.9
2022-08-19T04:25:26.025Z,18.9
2022-08-19T04:27:52.643Z,19.5
2022-08-19T04:30:19.251Z,21.1
2022-08-19T04:32:45.880Z,21.3
2022-08-19T04:35:12.513Z,21.1
2022-08-19T04:37:39.128Z,21.4
2022-08-19T04:40:05.757Z,21.7
2022-08-19T04:42:32.368Z,20.6
2022-08-19T04:47:25.627Z,21.3
2022-08-19T04:49:50.760Z,20.4
2022-08-19T04:54:44.002Z,23.7
2022-08-19T04:57:09.131Z,22.3
2022-08-19T04:59:35.747Z,22.1
2022-08-19T05:02:00.877Z,22.8
2022-08-19T05:04:27.505Z,22
2022-08-19T05:06:54.126Z,22.3
2022-08-19T05:11:47.365Z,24.2
2022-08-19T05:16:40.614Z,24
2022-08-19T05:19:07.242Z,24.4
2022-08-19T05:21:33.851Z,23.8
2022-08-19T05:24:00.485Z,23.5
2022-08-19T05:26:27.100Z,24.7
2022-08-19T05:28:53.729Z,23.1
2022-08-19T05:31:20.345Z,22.8
2022-08-19T05:33:46.981Z,25.1
2022-08-19T05:36:13.609Z,23.4
2022-08-19T05:38:38.736Z,24.1
2022-08-19T05:41:03.863Z,24
2022-08-19T05:43:30.475Z,24.3
2022-08-19T05:45:57.102Z,22
2022-08-19T05:48:23.724Z,22.6
2022-08-19T05:53:16.977Z,24.1
2022-08-19T05:55:43.598Z,25
2022-08-19T05:58:10.239Z,24.5
2022-08-19T06:00:36.841Z,23.6
2022-08-19T06:03:03.459Z,25.4
2022-08-19T06:05:30.090Z,25.9
2022-08-19T06:07:56.715Z,26
2022-08-19T06:10:23.327Z,25.3
2022-08-19T06:12:49.956Z,27
2022-08-19T06:15:15.102Z,27.7
2022-08-19T06:17:41.709Z,28
2022-08-19T06:20:08.330Z,28
2022-08-19T06:22:34.966Z,29.4
2022-08-19T06:25:01.573Z,28.5
2022-08-19T06:27:28.199Z,28.6
2022-08-19T06:32:21.446Z,30.3
2022-08-19T06:37:14.686Z,28.2
2022-08-19T06:39:41.325Z,31.8
2022-08-19T06:42:07.948Z,30.2
2022-08-19T06:47:01.183Z,30.9
2022-08-19T06:49:26.322Z,31.7
2022-08-19T06:51:52.947Z,32.2
2022-08-19T06:54:19.574Z,33
2022-08-19T06:56:46.185Z,31.4
2022-08-19T06:59:12.813Z,31.1
2022-08-19T07:01:39.437Z,29.9
2022-08-19T07:04:06.056Z,33.4
2022-08-19T07:06:32.679Z,30.8
2022-08-19T07:08:59.303Z,32.6
2022-08-19T07:11:25.913Z,29.2
2022-08-19T07:13:52.549Z,33.5
2022-08-19T07:16:19.172Z,32.6
2022-08-19T07:21:12.405Z,30.8
2022-08-19T07:26:04.164Z,30.7
2022-08-19T07:28:32.083Z,32.2
2022-08-19T07:30:57.422Z,32.1
2022-08-19T07:33:24.032Z,33.8
2022-08-19T07:38:17.272Z,32.2
2022-08-19T07:40:43.899Z,32.4
2022-08-19T07:43:10.530Z,32.4
2022-08-19T07:45:37.138Z,32.5
2022-08-19T07:48:03.764Z,33.8
2022-08-19T07:50:30.419Z,32.8
2022-08-19T07:52:57.021Z,33.7
2022-08-19T07:57:48.766Z,34.1
2022-08-19T08:00:15.385Z,34.1
2022-08-19T08:02:42.015Z,33.7
2022-08-19T08:05:08.643Z,33.7
2022-08-19T08:07:35.254Z,33.8
2022-08-19T08:10:01.887Z,33
2022-08-19T08:12:28.502Z,33.4
2022-08-19T08:14:55.133Z,34
2022-08-19T08:17:21.750Z,32.1
2022-08-19T08:19:48.370Z,31.5
2022-08-19T08:22:14.994Z,32.4
2022-08-19T08:24:41.619Z,32.4
2022-08-19T08:27:08.232Z,32.2
2022-08-19T08:29:33.370Z,32.2
2022-08-19T08:31:58.500Z,30.8
2022-08-19T08:34:25.122Z,33.7
2022-08-19T08:36:51.738Z,33.7
2022-08-19T08:39:18.366Z,31.8
2022-08-19T08:41:44.992Z,33.3
2022-08-19T08:44:11.613Z,34.2
2022-08-19T08:46:38.240Z,31.4
2022-08-19T08:49:04.844Z,30.6
2022-08-19T08:51:31.485Z,30.2
2022-08-19T08:53:58.105Z,30.8
2022-08-19T08:56:23.231Z,30.4
2022-08-19T08:58:49.853Z,30.8
2022-08-19T09:01:14.986Z,28.6
2022-08-19T09:03:41.613Z,28
2022-08-19T09:06:08.239Z,28.3
2022-08-19T09:08:34.864Z,26.9
2022-08-19T09:11:01.469Z,27.7
2022-08-19T09:13:28.095Z,26.9
2022-08-19T09:15:54.721Z,26
2022-08-19T09:18:21.348Z,26.3
2022-08-19T09:20:47.962Z,26.7
2022-08-19T09:23:14.583Z,26.8
2022-08-19T09:25:41.218Z,25
2022-08-19T09:28:07.845Z,26.7
2022-08-19T09:30:32.965Z,26.6
2022-08-19T09:32:59.585Z,25.2
2022-08-19T09:35:26.215Z,24.6
2022-08-19T09:40:19.450Z,25.4
2022-08-19T09:42:46.086Z,25.7
2022-08-19T09:47:39.317Z,23.7
2022-08-19T09:50:05.957Z,26.4
2022-08-19T09:52:32.571Z,27.8
2022-08-19T09:54:59.197Z,25.3
2022-08-19T09:57:25.822Z,26.7
2022-08-19T09:59:52.434Z,27.1
2022-08-19T10:02:17.570Z,24.6
2022-08-19T10:04:44.188Z,26.3
2022-08-19T10:07:10.821Z,24.4
2022-08-19T10:09:37.438Z,25.1
2022-08-19T10:12:04.048Z,27
2022-08-19T10:14:30.686Z,26.8
2022-08-19T10:16:57.325Z,25
2022-08-19T10:19:23.922Z,27.4
2022-08-19T10:21:50.537Z,26.8
2022-08-19T10:24:17.172Z,28.3
2022-08-19T10:26:43.790Z,26.6
2022-08-19T10:29:10.423Z,26.9
2022-08-19T10:31:37.041Z,28.8
2022-08-19T10:34:02.162Z,27.2
2022-08-19T10:36:28.778Z,27
2022-08-19T10:38:55.406Z,27
2022-08-19T10:41:22.021Z,26.2
2022-08-19T10:43:48.664Z,27.2
2022-08-19T10:46:15.276Z,29.2
2022-08-19T10:48:41.895Z,28.3
2022-08-19T10:51:08.515Z,27
2022-08-19T10:53:35.151Z,26.9
2022-08-19T10:56:01.771Z,27.4
2022-08-19T10:58:28.390Z,26.8
2022-08-19T11:00:55.009Z,27.2
2022-08-19T11:03:21.665Z,26.8
2022-08-19T11:05:46.768Z,27.8
2022-08-19T11:08:13.392Z,28.4
2022-08-19T11:13:06.634Z,27.4
2022-08-19T11:17:59.877Z,28.8
2022-08-19T11:20:26.505Z,27.7
2022-08-19T11:22:53.118Z,26
2022-08-19T11:25:19.751Z,26
2022-08-19T11:30:12.985Z,26.5
2022-08-19T11:32:38.120Z,27.6
2022-08-19T11:35:03.237Z,25.8
2022-08-19T11:37:29.903Z,25.8
2022-08-19T11:39:56.488Z,27.7
2022-08-19T11:42:23.111Z,25.9
2022-08-19T11:44:49.721Z,27.7
2022-08-19T11:47:16.361Z,28.2
2022-08-19T11:49:42.976Z,28.9
2022-08-19T11:52:09.603Z,26.2
2022-08-19T11:54:36.227Z,29.1
2022-08-19T11:57:02.849Z,27
2022-08-19T11:59:27.978Z,30.5
2022-08-19T12:01:53.105Z,30.6
2022-08-19T12:04:19.730Z,30.5
2022-08-19T12:06:46.353Z,31.5
2022-08-19T12:09:12.977Z,31.3
2022-08-19T12:11:39.595Z,31.7
2022-08-19T12:14:06.212Z,30.7
2022-08-19T12:16:32.855Z,33.1
2022-08-19T12:18:59.464Z,31.9
2022-08-19T12:21:26.081Z,35.9
2022-08-19T12:23:52.705Z,33.8
2022-08-19T12:26:19.331Z,32.7
2022-08-19T12:28:45.957Z,33.5
2022-08-19T12:31:12.576Z,33.4
2022-08-19T12:33:37.750Z,37.4
2022-08-19T12:36:04.328Z,37.6
2022-08-19T12:38:30.953Z,43
2022-08-19T12:43:24.184Z,39.2
2022-08-19T12:45:50.825Z,40.1
2022-08-19T12:48:17.437Z,38.1
2022-08-19T12:50:44.049Z,38.3
2022-08-19T12:53:10.692Z,36.2
2022-08-19T12:55:37.313Z,35.2
2022-08-19T12:58:03.936Z,34.5
2022-08-19T13:00:30.597Z,35.6
2022-08-19T13:02:57.174Z,35.5
2022-08-19T13:05:22.314Z,37.1
2022-08-19T13:07:48.928Z,36.7
2022-08-19T13:10:15.540Z,37.9
2022-08-19T13:12:42.181Z,36.1
2022-08-19T13:15:08.780Z,35
2022-08-19T13:17:35.421Z,31.9
2022-08-19T13:20:02.043Z,33.4
2022-08-19T13:22:28.649Z,34.5
2022-08-19T13:24:55.280Z,31.7
2022-08-19T13:27:21.904Z,34.3
2022-08-19T13:29:48.528Z,33.7
2022-08-19T13:32:15.146Z,33.8
2022-08-19T13:34:41.774Z,29
2022-08-19T13:37:06.895Z,25.1
2022-08-19T13:39:33.526Z,29.2
2022-08-19T13:42:00.151Z,27
2022-08-19T13:44:26.784Z,29.1
2022-08-19T13:46:53.394Z,28.6
2022-08-19T13:49:20.012Z,27.5
2022-08-19T13:51:46.632Z,25.8
2022-08-19T13:54:13.266Z,25.6
2022-08-19T13:56:39.884Z,29.3
2022-08-19T13:59:06.502Z,28.5
2022-08-19T14:01:33.127Z,30
2022-08-19T14:03:59.755Z,32.7
2022-08-19T14:06:26.375Z,27.5
2022-08-19T14:08:52.999Z,30.7
2022-08-19T14:11:18.133Z,27
2022-08-19T14:13:44.757Z,30
2022-08-19T14:16:11.366Z,28.5
2022-08-19T14:18:37.990Z,31.5
2022-08-19T14:21:04.616Z,30.7
2022-08-19T14:23:31.240Z,31.6
2022-08-19T14:25:57.858Z,39
2022-08-19T14:28:24.498Z,30.8
2022-08-19T14:30:51.109Z,35.8
2022-08-19T14:33:17.740Z,30.6
2022-08-19T14:35:44.345Z,29.5
2022-08-19T14:38:10.994Z,28.9
2022-08-19T14:40:37.592Z,31
2022-08-19T14:43:02.723Z,33.1
2022-08-19T14:45:29.346Z,31.1
2022-08-19T14:47:55.982Z,29.2
2022-08-19T14:50:22.586Z,29.6
2022-08-19T14:52:49.222Z,32.7
2022-08-19T14:55:15.842Z,32.8
2022-08-19T14:57:42.466Z,31.5
2022-08-19T15:00:09.092Z,32.9
2022-08-19T15:02:35.700Z,34.5
2022-08-19T15:05:02.319Z,33.8
2022-08-19T15:07:28.954Z,35.1
2022-08-19T15:09:55.566Z,34.4
2022-08-19T15:12:22.200Z,34.4
2022-08-19T15:14:47.322Z,39.1
2022-08-19T15:17:13.951Z,37.5
2022-08-19T15:19:40.575Z,37.9
2022-08-19T15:22:07.201Z,34.4
2022-08-19T15:24:33.812Z,36.6
2022-08-19T15:27:00.430Z,35
2022-08-19T15:29:27.063Z,33.1
2022-08-19T15:31:53.691Z,35.9
2022-08-19T15:34:20.296Z,34.8
2022-08-19T15:36:46.925Z,35.7
2022-08-19T15:39:13.558Z,31.4
2022-08-19T15:41:40.181Z,32.8
2022-08-19T15:44:06.809Z,32.6
2022-08-19T15:46:31.927Z,33.5
2022-08-19T15:48:58.557Z,33.5
2022-08-19T15:51:25.187Z,35.2
2022-08-19T15:53:51.802Z,36.3
2022-08-19T15:56:18.423Z,33.3
2022-08-19T15:58:45.070Z,33.9
2022-08-19T16:01:11.669Z,36.3
2022-08-19T16:03:38.277Z,35.8
2022-08-19T16:06:04.915Z,38.3
2022-08-19T16:08:31.538Z,39.3
2022-08-19T16:10:58.162Z,39
2022-08-19T16:13:24.783Z,39.9
2022-08-19T16:15:51.395Z,40.8
2022-08-19T16:18:18.020Z,42.2
2022-08-19T16:20:43.162Z,42.5
2022-08-19T16:23:09.772Z,40.6
2022-08-19T16:25:36.409Z,39.8
2022-08-19T16:28:03.031Z,41.7
2022-08-19T16:30:29.637Z,43.6
2022-08-19T16:32:56.279Z,43.8
2022-08-19T16:35:22.908Z,41.2
2022-08-19T16:37:49.523Z,41.8
2022-08-19T16:40:16.132Z,40
2022-08-19T16:42:42.753Z,41.5
2022-08-19T16:45:09.389Z,39.9
2022-08-19T16:47:36.014Z,43.1
2022-08-19T16:50:02.636Z,40.6
2022-08-19T16:52:27.761Z,43.6
2022-08-19T16:54:54.385Z,36.4
2022-08-19T16:57:21.005Z,39.7
2022-08-19T16:59:47.618Z,40.6
2022-08-19T17:02:14.258Z,39
2022-08-19T17:04:40.879Z,35.6
2022-08-19T17:07:07.492Z,36.3
2022-08-19T17:09:34.117Z,32.7
2022-08-19T17:12:00.725Z,36.9
2022-08-19T17:14:27.370Z,33.6
2022-08-19T17:21:47.223Z,33.6
2022-08-19T17:24:12.355Z,29.4
2022-08-19T17:26:38.975Z,32.9
2022-08-19T17:29:05.606Z,31.2
2022-08-19T17:31:32.221Z,32.4
2022-08-19T17:33:58.855Z,33.1
2022-08-19T17:36:25.481Z,31.8
2022-08-19T17:38:52.085Z,29.7
2022-08-19T17:41:17.219Z,29.9
2022-08-19T17:43:43.853Z,30.7
2022-08-19T17:46:11.001Z,31.1
2022-08-19T17:48:37.094Z,30.2
2022-08-19T17:51:03.723Z,31.5
2022-08-19T17:53:30.344Z,32
2022-08-19T17:55:56.961Z,30.9
2022-08-19T17:58:23.585Z,30.1
2022-08-19T18:00:50.214Z,31
2022-08-19T18:03:16.839Z,31.1
2022-08-19T18:05:43.447Z,30.5
2022-08-19T18:08:10.078Z,30.8
2022-08-19T18:10:36.695Z,33
2022-08-19T18:13:01.822Z,34.3
2022-08-19T18:15:28.453Z,34
2022-08-19T18:17:55.086Z,35.2
2022-08-19T18:20:21.692Z,35.2
2022-08-19T18:22:48.321Z,35.6
2022-08-19T18:25:14.943Z,40.3
2022-08-19T18:30:08.183Z,40.1
2022-08-19T18:35:01.440Z,41.5
2022-08-19T18:37:28.060Z,37.8
2022-08-19T18:39:54.678Z,37.5
2022-08-19T18:42:21.303Z,41.5
2022-08-19T18:44:47.920Z,41.3
2022-08-19T18:47:13.057Z,37.4
2022-08-19T18:49:39.669Z,35.3
2022-08-19T18:54:32.912Z,41.3
2022-08-19T18:59:26.175Z,43.3
2022-08-19T19:01:51.303Z,41
2022-08-19T19:04:17.927Z,40.7
2022-08-19T19:09:09.677Z,43.1
2022-08-19T19:11:36.297Z,43.3
2022-08-19T19:14:02.919Z,42.8
2022-08-19T19:16:29.545Z,40.9
2022-08-19T19:18:56.167Z,43.6
2022-08-19T19:21:22.793Z,44.9
2022-08-19T19:23:49.421Z,46
2022-08-19T19:26:16.044Z,38.6
2022-08-19T19:28:42.664Z,46.6
2022-08-19T19:31:09.286Z,39.2
2022-08-19T19:33:35.911Z,32.9
2022-08-19T19:36:02.533Z,43.3
2022-08-19T19:38:29.158Z,43.4
2022-08-19T19:40:54.282Z,41.9
2022-08-19T19:43:20.903Z,45.8
2022-08-19T19:45:47.523Z,40.5
2022-08-19T19:48:14.145Z,45.5
2022-08-19T19:53:07.395Z,41.1
2022-08-19T19:55:34.014Z,40.7
2022-08-19T19:58:00.631Z,37.6
2022-08-19T20:02:52.379Z,39
2022-08-19T20:07:45.628Z,41
2022-08-19T20:10:12.277Z,43.7
2022-08-19T20:12:37.395Z,42.2
2022-08-19T20:15:04.011Z,42.2
2022-08-19T20:17:30.645Z,42.5
2022-08-19T20:19:55.781Z,48.1
2022-08-19T20:22:22.387Z,45.7
2022-08-19T20:24:48.999Z,48.7
2022-08-19T20:27:15.638Z,46.5
2022-08-19T20:29:42.268Z,44
2022-08-19T20:32:08.873Z,49.3
2022-08-19T20:34:35.513Z,49.5
2022-08-19T20:37:02.122Z,44.1
2022-08-19T20:39:28.736Z,47
2022-08-19T20:41:55.368Z,49
2022-08-19T20:46:47.129Z,45.1
2022-08-19T20:51:38.873Z,50.2
2022-08-19T20:56:32.107Z,45.7
2022-08-19T20:58:58.746Z,46.5
2022-08-19T21:01:25.359Z,46.1
2022-08-19T21:03:51.985Z,43.3
2022-08-19T21:06:18.610Z,44.3
2022-08-19T21:08:45.234Z,42.7
2022-08-19T21:11:11.859Z,42.8
2022-08-19T21:16:05.105Z,47.3
2022-08-19T21:18:31.721Z,44.4
2022-08-19T21:20:56.839Z,46.6
2022-08-19T21:23:23.470Z,40.6
2022-08-19T21:25:50.094Z,42.7
2022-08-19T21:28:16.725Z,44.7
2022-08-19T21:30:43.343Z,44
2022-08-19T21:33:09.970Z,44.9
2022-08-19T21:35:36.596Z,40.1
2022-08-19T21:38:03.209Z,42.6
2022-08-19T21:40:29.833Z,45.3
2022-08-19T21:42:56.455Z,46.6
2022-08-19T21:45:23.074Z,46.6
2022-08-19T21:47:49.697Z,44.7
2022-08-19T21:50:16.331Z,45.3
2022-08-19T21:55:09.568Z,49.5
2022-08-19T22:00:01.304Z,43.8
2022-08-19T22:02:27.947Z,41.2
2022-08-19T22:04:54.558Z,44.7
2022-08-19T22:09:47.808Z,48.1
2022-08-19T22:14:41.056Z,41.7
2022-08-19T22:19:34.301Z,49.7
2022-08-19T22:22:00.925Z,49.4
2022-08-19T22:24:27.544Z,48.5
2022-08-19T22:26:54.174Z,47.7
2022-08-19T22:29:19.298Z,45.5
2022-08-19T22:34:12.538Z,45.7
2022-08-19T22:36:39.163Z,41.4
2022-08-19T22:39:05.799Z,48.3
2022-08-19T22:43:59.030Z,44.8
2022-08-19T22:46:25.644Z,48.8
2022-08-19T22:48:52.275Z,44.8
2022-08-19T22:51:18.896Z,46.9
2022-08-19T22:53:45.511Z,46.4
2022-08-19T22:56:12.158Z,39.3
2022-08-19T22:58:38.768Z,45.5
2022-08-19T23:03:32.012Z,38.3
2022-08-19T23:05:57.137Z,44.2
2022-08-19T23:08:23.769Z,44.7
2022-08-19T23:10:50.427Z,43.5
2022-08-19T23:13:16.995Z,39.4
2022-08-19T23:15:43.640Z,43
2022-08-19T23:18:10.260Z,43.1
2022-08-19T23:23:03.490Z,45.2
2022-08-19T23:25:30.123Z,42.1
2022-08-19T23:27:56.747Z,42.5
2022-08-19T23:32:49.998Z,46.8
2022-08-19T23:37:43.239Z,48.2
2022-08-19T23:40:08.378Z,47
2022-08-19T23:42:34.985Z,44.9
2022-08-19T23:45:01.611Z,42.9
2022-08-19T23:47:28.219Z,47.1
2022-08-19T23:52:21.474Z,50.6
2022-08-19T23:54:48.098Z,47.8
2022-08-19T23:57:14.726Z,41.6
